Time;durP1;ratioP1;P1;durP2;ratioP2;P2;SDS_P1;SDS_P2;PMS_P1;PMS_P2;Temp;Humidity;BMP_temperature;BMP_pressure;BME280_temperature;BME280_humidity;BME280_pressure;Samples;Min_cycle;Max_cycle;Signal;HPM_P1;HPM_P2
2022/06/10 00:00:53;;;;;;;12.02;8.70;;;;;;;20.26;100.00;100258.06;5056614;28;20031;-77
2022/06/10 00:03:39;;;;;;;11.73;8.80;;;;;;;19.84;100.00;100250.13;5056268;28;20052;-76
2022/06/10 00:06:25;;;;;;;10.07;8.20;;;;;;;20.10;100.00;100252.88;5056174;28;20419;-76
2022/06/10 00:09:11;;;;;;;11.02;8.68;;;;;;;19.47;100.00;100258.66;5056328;28;20044;-76
2022/06/10 00:11:56;;;;;;;11.05;9.77;;;;;;;19.43;100.00;100259.78;5056021;28;20029;-75
2022/06/10 00:14:42;;;;;;;11.13;9.75;;;;;;;19.64;100.00;100271.78;5056765;28;20481;-77
2022/06/10 00:17:28;;;;;;;13.13;10.23;;;;;;;19.73;100.00;100272.03;5040946;28;20365;-72
2022/06/10 00:20:16;;;;;;;11.40;10.15;;;;;;;19.90;100.00;100271.88;5055251;28;20025;-73
2022/06/10 00:23:02;;;;;;;11.80;10.13;;;;;;;19.73;100.00;100274.69;5054950;28;20068;-72
2022/06/10 00:25:48;;;;;;;15.95;10.73;;;;;;;19.46;100.00;100271.09;5054757;28;20107;-73
2022/06/10 00:28:34;;;;;;;11.43;10.20;;;;;;;19.63;100.00;100278.03;5054790;28;20044;-73
2022/06/10 00:31:20;;;;;;;11.70;10.48;;;;;;;19.63;100.00;100276.22;5054608;28;20032;-73
2022/06/10 00:34:06;;;;;;;14.80;11.30;;;;;;;19.87;100.00;100264.06;5054777;28;20461;-73
2022/06/10 00:36:52;;;;;;;12.57;10.35;;;;;;;19.53;100.00;100268.91;5040400;28;20024;-73
2022/06/10 00:39:38;;;;;;;15.00;11.38;;;;;;;19.49;100.00;100270.88;5053954;28;20110;-72
2022/06/10 00:42:24;;;;;;;13.85;10.98;;;;;;;19.86;100.00;100266.81;5040117;28;20036;-74
2022/06/10 00:45:47;;;;;;;17.13;11.50;;;;;;;19.62;100.00;100271.88;5054539;28;20033;-73
2022/06/10 00:48:53;;;;;;;14.85;12.18;;;;;;;19.79;100.00;100261.03;5039454;28;20419;-73
2022/06/10 00:51:51;;;;;;;17.20;13.13;;;;;;;19.43;100.00;100265.97;5055557;28;20377;-73
2022/06/10 00:54:41;;;;;;;18.98;12.57;;;;;;;19.79;100.00;100268.16;5054139;28;20472;-73
2022/06/10 00:57:33;;;;;;;17.52;13.65;;;;;;;19.64;100.00;100272.63;5054538;28;20024;-73
2022/06/10 01:00:19;;;;;;;19.33;13.85;;;;;;;19.17;100.00;100277.28;5053544;28;20032;-73
2022/06/10 01:03:05;;;;;;;14.75;12.80;;;;;;;19.01;100.00;100271.16;5039430;28;20150;-72
2022/06/10 01:05:50;;;;;;;17.48;13.63;;;;;;;19.33;100.00;100270.09;5054640;28;20446;-73
2022/06/10 01:08:37;;;;;;;17.48;13.45;;;;;;;19.44;100.00;100266.81;5053980;28;20043;-72
2022/06/10 01:11:31;;;;;;;17.85;13.82;;;;;;;19.07;100.00;100260.16;5054201;28;20086;-74
2022/06/10 01:14:35;;;;;;;15.75;13.40;;;;;;;19.29;100.00;100268.56;5039290;28;20029;-73
2022/06/10 01:17:59;;;;;;;15.52;12.68;;;;;;;19.33;100.00;100274.56;5054644;28;20053;-72
2022/06/10 01:20:45;;;;;;;15.98;13.80;;;;;;;19.19;100.00;100276.25;5045414;28;20108;-74
2022/06/10 01:23:57;;;;;;;21.27;14.48;;;;;;;19.39;100.00;100276.84;5054467;28;20086;-73
2022/06/10 01:30:43;;;;;;;14.35;12.77;;;;;;;19.18;100.00;100273.66;5054318;28;20095;-73
2022/06/10 01:33:44;;;;;;;16.55;14.50;;;;;;;19.40;100.00;100275.94;5050388;28;20468;-73
2022/06/10 01:37:18;;;;;;;17.13;14.88;;;;;;;19.35;100.00;100280.63;5054087;28;20094;-73
2022/06/10 01:40:21;;;;;;;18.80;14.73;;;;;;;19.46;100.00;100283.50;5054084;28;20151;-73
2022/06/10 01:43:36;;;;;;;17.98;14.20;;;;;;;19.32;100.00;100267.56;5057701;28;20036;-73
2022/06/10 01:46:25;;;;;;;21.63;14.65;;;;;;;19.03;100.00;100274.56;5045089;28;20450;-73
2022/06/10 01:49:21;;;;;;;15.75;13.38;;;;;;;19.08;100.00;100272.47;5057587;28;20446;-73
2022/06/10 01:52:32;;;;;;;18.02;15.15;;;;;;;18.52;100.00;100277.56;5057925;28;20098;-73
2022/06/10 01:55:28;;;;;;;37.22;22.55;;;;;;;18.07;100.00;100280.97;5057723;28;20039;-72
2022/06/10 01:58:35;;;;;;;37.90;23.73;;;;;;;18.33;100.00;100288.31;5043147;28;20057;-73
2022/06/10 02:01:28;;;;;;;40.42;22.70;;;;;;;18.21;100.00;100291.66;5057678;28;20028;-72
2022/06/10 02:04:30;;;;;;;40.95;23.20;;;;;;;18.57;100.00;100291.44;5057912;28;20044;-72
2022/06/10 02:07:40;;;;;;;42.00;23.33;;;;;;;17.99;100.00;100296.44;5042856;28;20060;-71
2022/06/10 02:10:31;;;;;;;47.75;25.85;;;;;;;18.28;100.00;100305.44;5057836;28;20029;-72
2022/06/10 02:13:23;;;;;;;45.33;25.27;;;;;;;18.16;100.00;100299.03;5057180;28;20064;-72
2022/06/10 02:16:14;;;;;;;43.28;25.25;;;;;;;18.27;100.00;100303.72;5058353;28;20442;-73
2022/06/10 02:19:13;;;;;;;46.13;25.45;;;;;;;18.26;100.00;100297.59;5056431;28;20025;-72
2022/06/10 02:22:21;;;;;;;53.35;27.55;;;;;;;18.23;100.00;100305.72;5057168;28;20053;-73
2022/06/10 02:25:25;;;;;;;45.85;26.48;;;;;;;17.93;100.00;100317.13;5042604;28;20044;-73
2022/06/10 02:28:15;;;;;;;43.67;26.60;;;;;;;18.18;100.00;100326.31;5057474;28;20041;-71
2022/06/10 02:31:08;;;;;;;45.80;26.00;;;;;;;18.22;100.00;100319.91;5056766;28;20021;-72
2022/06/10 02:33:54;;;;;;;48.50;28.05;;;;;;;18.05;100.00;100329.72;5057635;28;20178;-72
2022/06/10 02:37:05;;;;;;;43.60;27.17;;;;;;;18.41;100.00;100330.41;5056911;28;20031;-73
2022/06/10 02:40:14;;;;;;;43.88;27.75;;;;;;;18.66;100.00;100331.56;5056907;28;20033;-73
2022/06/10 02:43:28;;;;;;;38.38;24.58;;;;;;;18.52;100.00;100330.63;5056601;28;20450;-73
2022/06/10 02:46:23;;;;;;;36.08;22.85;;;;;;;18.43;100.00;100333.81;5056906;28;20445;-73
2022/06/10 02:49:14;;;;;;;38.72;22.50;;;;;;;18.73;100.00;100340.91;5056742;28;20040;-73
2022/06/10 02:52:01;;;;;;;39.20;22.00;;;;;;;18.76;100.00;100358.44;5042260;28;20051;-73
2022/06/10 02:54:47;;;;;;;31.60;20.58;;;;;;;19.02;100.00;100356.00;5056340;28;20033;-72
2022/06/10 03:01:18;;;;;;;38.35;23.70;;;;;;;18.73;100.00;100359.47;5056293;28;20037;-73
2022/06/10 03:04:29;;;;;;;31.55;23.33;;;;;;;18.93;100.00;100355.72;5056428;28;20068;-73
2022/06/10 03:07:24;;;;;;;31.60;21.80;;;;;;;18.90;100.00;100359.38;5056181;28;20021;-74
2022/06/10 03:10:25;;;;;;;28.58;21.02;;;;;;;19.10;100.00;100351.13;5056754;28;20094;-73
2022/06/10 03:13:11;;;;;;;27.08;19.67;;;;;;;19.22;100.00;100352.22;5056202;28;20450;-74
2022/06/10 03:16:09;;;;;;;29.17;20.02;;;;;;;19.20;100.00;100349.66;5042021;28;20086;-73
2022/06/10 03:19:14;;;;;;;28.38;21.38;;;;;;;19.15;100.00;100346.41;5041674;28;20060;-73
2022/06/10 03:22:12;;;;;;;30.13;21.55;;;;;;;18.67;100.00;100357.19;5056142;28;20095;-73
2022/06/10 03:25:07;;;;;;;30.15;22.75;;;;;;;18.89;100.00;100349.69;5041139;28;20032;-73
2022/06/10 03:28:14;;;;;;;28.23;20.48;;;;;;;19.10;100.00;100355.59;5056290;28;20451;-73
2022/06/10 03:31:08;;;;;;;24.73;17.15;;;;;;;19.16;100.00;100360.53;5055788;28;20028;-72
2022/06/10 03:34:01;;;;;;;24.02;16.95;;;;;;;19.18;100.00;100366.63;5041342;28;20083;-73
2022/06/10 03:36:48;;;;;;;24.20;16.50;;;;;;;19.21;100.00;100361.16;5055725;28;20032;-73
2022/06/10 03:39:34;;;;;;;21.63;15.55;;;;;;;19.51;100.00;100358.47;5041944;28;20032;-73
2022/06/10 03:42:23;;;;;;;20.90;15.48;;;;;;;19.53;100.00;100351.28;5040815;28;20394;-73
2022/06/10 03:45:15;;;;;;;19.67;14.65;;;;;;;19.20;100.00;100367.38;5055156;28;20094;-73
2022/06/10 03:48:01;;;;;;;22.48;15.73;;;;;;;19.34;100.00;100370.13;5055980;28;20421;-73
2022/06/10 03:50:48;;;;;;;26.65;16.17;;;;;;;19.15;100.00;100362.34;5055966;28;20060;-72
2022/06/10 03:53:34;;;;;;;26.27;17.63;;;;;;;19.07;100.00;100363.72;5040780;28;20039;-73
2022/06/10 03:56:22;;;;;;;26.77;17.40;;;;;;;19.36;100.00;100367.38;5055218;28;20032;-73
2022/06/10 03:59:09;;;;;;;23.27;17.25;;;;;;;19.58;100.00;100371.34;5041118;28;20025;-72
2022/06/10 04:01:54;;;;;;;27.88;17.85;;;;;;;19.21;100.00;100371.75;5055795;28;20021;-73
2022/06/10 04:04:42;;;;;;;28.67;19.48;;;;;;;19.48;100.00;100377.28;5054268;28;20140;-73
2022/06/10 04:07:28;;;;;;;31.25;19.02;;;;;;;19.28;100.00;100381.09;5054675;28;20032;-73
2022/06/10 04:10:17;;;;;;;30.50;18.73;;;;;;;19.50;100.00;100381.56;5055663;28;20352;-77
2022/06/10 04:13:03;;;;;;;28.83;19.42;;;;;;;19.55;100.00;100376.81;5054553;28;20021;-76
2022/06/10 04:15:49;;;;;;;28.92;19.48;;;;;;;19.40;100.00;100380.38;5040302;28;20029;-76
2022/06/10 04:18:35;;;;;;;32.75;21.92;;;;;;;19.56;100.00;100383.84;5054857;28;20025;-78
2022/06/10 04:21:21;;;;;;;34.78;20.65;;;;;;;19.80;100.00;100387.69;5040745;28;20024;-77
2022/06/10 04:24:07;;;;;;;33.95;21.20;;;;;;;20.17;100.00;100394.34;5054828;28;20445;-75
2022/06/10 04:26:53;;;;;;;36.03;22.23;;;;;;;19.67;100.00;100400.03;5054747;28;20116;-77
2022/06/10 04:29:39;;;;;;;43.88;25.63;;;;;;;19.57;100.00;100400.66;5055705;28;20130;-77
2022/06/10 04:32:25;;;;;;;37.08;25.08;;;;;;;19.83;100.00;100399.94;5039310;28;20075;-72
2022/06/10 04:35:11;;;;;;;38.05;23.52;;;;;;;19.61;100.00;100403.03;5039829;28;20129;-75
2022/06/10 04:37:56;;;;;;;38.40;25.23;;;;;;;19.71;100.00;100403.34;5040077;28;20346;-76
2022/06/10 04:40:44;;;;;;;37.33;23.55;;;;;;;19.99;100.00;100406.91;5055036;28;20028;-77
2022/06/10 04:43:29;;;;;;;34.20;22.08;;;;;;;20.24;100.00;100406.28;5054610;28;20078;-76
2022/06/10 04:46:29;;;;;;;29.23;20.88;;;;;;;20.03;100.00;100405.78;5055074;28;20085;-77
2022/06/10 04:49:15;;;;;;;32.72;20.75;;;;;;;20.19;100.00;100403.94;5054415;28;20033;-77
2022/06/10 04:52:03;;;;;;;31.05;21.90;;;;;;;19.60;100.00;100408.47;5054575;28;20120;-76
2022/06/10 04:54:48;;;;;;;29.80;19.95;;;;;;;20.01;100.00;100414.81;5054726;28;20407;-76
2022/06/10 04:57:35;;;;;;;29.27;20.25;;;;;;;20.30;100.00;100413.91;5045973;28;20108;-76
2022/06/10 05:00:27;;;;;;;34.30;21.40;;;;;;;20.06;100.00;100413.59;5064826;28;20017;-76
2022/06/10 05:03:13;;;;;;;32.63;22.17;;;;;;;19.88;100.00;100404.03;5054930;28;20381;-75
2022/06/10 05:05:59;;;;;;;32.20;21.42;;;;;;;19.83;100.00;100416.75;5054576;28;20029;-76
2022/06/10 05:08:45;;;;;;;30.98;21.92;;;;;;;20.22;100.00;100411.72;5055443;28;20035;-76
2022/06/10 05:11:31;;;;;;;31.02;22.30;;;;;;;20.50;100.00;100414.38;5040057;28;20036;-77
2022/06/10 05:14:16;;;;;;;39.35;23.55;;;;;;;20.58;100.00;100417.38;5053664;28;20029;-76
2022/06/10 05:17:03;;;;;;;38.30;23.20;;;;;;;20.34;100.00;100424.28;5054579;28;20066;-76
2022/06/10 05:19:49;;;;;;;32.88;21.83;;;;;;;20.25;100.00;100424.81;5039925;28;20104;-76
2022/06/10 05:22:34;;;;;;;34.42;22.60;;;;;;;20.28;100.00;100418.44;5053858;28;20450;-77
2022/06/10 05:25:20;;;;;;;32.65;22.45;;;;;;;20.15;100.00;100425.47;5054743;28;20029;-76
2022/06/10 05:28:07;;;;;;;33.10;22.67;;;;;;;20.44;100.00;100429.84;5054395;28;20029;-76
2022/06/10 05:30:53;;;;;;;33.88;22.45;;;;;;;20.73;100.00;100435.06;5054498;28;20429;-76
2022/06/10 05:36:43;;;;;;;32.50;22.77;;;;;;;21.24;100.00;100438.88;5053773;28;20098;-75
2022/06/10 05:39:29;;;;;;;32.63;22.67;;;;;;;21.52;100.00;100452.09;5054363;28;20028;-77
2022/06/10 05:42:16;;;;;;;27.25;20.80;;;;;;;21.39;100.00;100457.41;5053733;28;20028;-77
2022/06/10 05:45:02;;;;;;;28.40;20.38;;;;;;;21.63;100.00;100458.44;5039215;28;20029;-76
2022/06/10 05:47:51;;;;;;;31.02;21.38;;;;;;;21.67;100.00;100449.28;5053540;28;20029;-76
2022/06/10 05:50:39;;;;;;;31.10;22.40;;;;;;;21.79;100.00;100456.44;5038790;28;20025;-77
2022/06/10 05:53:25;;;;;;;28.67;21.08;;;;;;;21.75;100.00;100454.97;5054403;28;20388;-76
2022/06/10 05:56:11;;;;;;;29.33;20.38;;;;;;;21.35;100.00;100458.56;5054012;28;20167;-77
2022/06/10 05:58:57;;;;;;;24.52;19.77;;;;;;;21.62;100.00;100456.69;5053845;28;20102;-76
2022/06/10 06:01:42;;;;;;;26.55;21.33;;;;;;;22.08;100.00;100449.16;5053747;28;20053;-76
2022/06/10 06:04:29;;;;;;;29.02;21.42;;;;;;;22.04;100.00;100448.50;5052970;28;20187;-76
2022/06/10 06:07:22;;;;;;;26.00;20.75;;;;;;;21.79;100.00;100463.63;5053617;28;20419;-77
2022/06/10 06:10:12;;;;;;;30.58;21.73;;;;;;;21.74;100.00;100460.41;5039220;28;20021;-77
2022/06/10 06:12:57;;;;;;;31.65;22.83;;;;;;;22.10;100.00;100449.91;5053044;28;20033;-76
2022/06/10 06:15:44;;;;;;;28.23;21.45;;;;;;;22.07;100.00;100472.28;5054228;28;20460;-77
2022/06/10 06:18:29;;;;;;;33.83;22.65;;;;;;;21.77;100.00;100466.38;5053361;28;20108;-77
2022/06/10 06:21:15;;;;;;;34.85;23.55;;;;;;;22.22;100.00;100465.91;5054555;28;20131;-75
2022/06/10 06:24:01;;;;;;;30.08;21.85;;;;;;;22.70;100.00;100477.66;5054414;28;20108;-76
2022/06/10 06:26:47;;;;;;;29.58;22.35;;;;;;;22.74;100.00;100473.81;5039644;28;20102;-77
2022/06/10 06:29:33;;;;;;;29.63;21.55;;;;;;;22.59;100.00;100474.94;5057339;28;20021;-76
2022/06/10 06:32:19;;;;;;;28.05;22.95;;;;;;;22.67;100.00;100467.22;5056440;28;20104;-76
2022/06/10 06:35:05;;;;;;;33.28;24.60;;;;;;;22.96;100.00;100464.19;5056501;28;20060;-75
2022/06/10 06:37:51;;;;;;;28.70;21.75;;;;;;;23.36;100.00;100465.66;5056084;28;20110;-77
2022/06/10 06:40:37;;;;;;;26.75;21.08;;;;;;;23.60;100.00;100470.16;5057104;28;20033;-76
2022/06/10 06:43:23;;;;;;;26.05;20.00;;;;;;;23.38;100.00;100487.78;5041701;28;20029;-77
2022/06/10 06:46:12;;;;;;;28.33;21.75;;;;;;;23.65;100.00;100479.53;5057211;28;20029;-78
2022/06/10 06:48:59;;;;;;;25.95;19.25;;;;;;;23.37;100.00;100474.53;5056640;28;20036;-78
2022/06/10 06:51:46;;;;;;;23.52;19.08;;;;;;;23.88;100.00;100481.34;5043657;28;20033;-77
2022/06/10 06:54:31;;;;;;;26.92;19.33;;;;;;;24.13;100.00;100486.56;5057064;28;20035;-78
2022/06/10 06:57:18;;;;;;;24.27;18.92;;;;;;;23.47;100.00;100491.63;5055870;28;20421;-79
2022/06/10 07:00:06;;;;;;;30.15;20.60;;;;;;;23.42;100.00;100490.25;5042906;28;20029;-78
2022/06/10 07:02:52;;;;;;;27.90;19.95;;;;;;;22.99;100.00;100487.16;5055378;28;20025;-78
2022/06/10 07:05:38;;;;;;;23.60;19.88;;;;;;;22.76;100.00;100483.47;5057287;28;20082;-78
2022/06/10 07:08:31;;;;;;;27.00;20.23;;;;;;;23.36;100.00;100487.03;5056270;28;20021;-78
2022/06/10 07:11:17;;;;;;;23.60;18.70;;;;;;;23.55;100.00;100488.38;5057480;28;20111;-77
2022/06/10 07:14:03;;;;;;;25.85;18.75;;;;;;;23.44;100.00;100491.84;5056101;28;20025;-78
2022/06/10 07:16:52;;;;;;;20.35;17.77;;;;;;;23.88;100.00;100492.06;5042036;28;20024;-79
2022/06/10 07:19:38;;;;;;;23.15;19.05;;;;;;;23.26;100.00;100487.84;5056431;28;20029;-77
2022/06/10 07:22:24;;;;;;;21.10;18.35;;;;;;;23.27;100.00;100495.75;5056228;28;20373;-78
2022/06/10 07:25:12;;;;;;;25.65;19.08;;;;;;;23.55;100.00;100493.72;5056763;28;20086;-78
2022/06/10 07:27:59;;;;;;;22.02;17.90;;;;;;;23.91;100.00;100499.00;5056097;28;20032;-78
2022/06/10 07:30:45;;;;;;;22.65;18.85;;;;;;;24.45;100.00;100492.09;5056449;28;20033;-79
2022/06/10 07:33:31;;;;;;;19.42;17.00;;;;;;;24.06;100.00;100503.22;5054813;28;20099;-78
2022/06/10 07:36:17;;;;;;;19.20;16.25;;;;;;;23.87;100.00;100492.16;5040889;28;20107;-79
2022/06/10 07:39:03;;;;;;;17.85;15.73;;;;;;;24.10;100.00;100508.22;5054952;28;20044;-78
2022/06/10 07:42:00;;;;;;;21.33;15.80;;;;;;;24.61;100.00;100506.91;5055562;28;20021;-77
2022/06/10 07:44:45;;;;;;;18.40;15.35;;;;;;;23.94;100.00;100510.34;5042154;28;20124;-78
2022/06/10 07:47:31;;;;;;;20.80;15.70;;;;;;;24.04;100.00;100500.66;5041049;28;20086;-78
2022/06/10 07:50:17;;;;;;;17.10;15.30;;;;;;;24.38;100.00;100499.75;5054685;28;20106;-77
2022/06/10 07:53:03;;;;;;;19.38;15.60;;;;;;;24.38;100.00;100501.56;5056596;28;20033;-78
2022/06/10 07:55:49;;;;;;;22.60;15.77;;;;;;;24.42;100.00;100501.22;5055930;28;20036;-78
2022/06/10 07:58:35;;;;;;;19.75;17.05;;;;;;;24.30;100.00;100496.81;5055677;28;20021;-78
2022/06/10 08:01:22;;;;;;;20.05;16.02;;;;;;;24.15;100.00;100491.81;5041314;28;20107;-79
2022/06/10 08:04:09;;;;;;;22.77;16.25;;;;;;;24.86;100.00;100493.25;5055642;28;20397;-77
2022/06/10 08:06:55;;;;;;;22.00;15.80;;;;;;;24.38;100.00;100504.25;5040411;28;20094;-78
2022/06/10 08:09:41;;;;;;;21.05;16.65;;;;;;;23.73;100.00;100511.06;5055808;28;20094;-78
2022/06/10 08:12:26;;;;;;;22.35;16.80;;;;;;;23.90;100.00;100500.81;5053974;28;20189;-78
2022/06/10 08:15:17;;;;;;;20.75;16.40;;;;;;;23.52;100.00;100501.97;5040436;28;20056;-78
2022/06/10 08:18:04;;;;;;;23.30;17.15;;;;;;;23.69;100.00;100510.44;5055719;28;20028;-75
2022/06/10 08:23:55;;;;;;;26.90;17.95;;;;;;;24.43;100.00;100507.44;5055208;28;20025;-78
2022/06/10 08:26:42;;;;;;;30.33;20.23;;;;;;;24.39;100.00;100519.38;5054609;28;20100;-78
2022/06/10 08:29:27;;;;;;;22.80;17.05;;;;;;;25.39;100.00;100521.97;5055655;28;20024;-78
2022/06/10 08:32:13;;;;;;;20.58;16.02;;;;;;;25.10;100.00;100519.91;5053212;28;20469;-78
2022/06/10 08:34:59;;;;;;;17.38;15.02;;;;;;;24.76;100.00;100524.47;5055182;28;20037;-78
2022/06/10 08:37:45;;;;;;;19.63;14.50;;;;;;;24.85;100.00;100525.53;5054994;28;20426;-73
2022/06/10 08:40:44;;;;;;;16.17;13.13;;;;;;;25.56;100.00;100532.19;5039758;28;20025;-78
2022/06/10 08:43:50;;;;;;;16.73;12.95;;;;;;;25.41;100.00;100533.47;5054749;28;20056;-76
2022/06/10 08:47:12;;;;;;;12.70;11.35;;;;;;;25.37;100.00;100525.78;5054449;28;20363;-76
2022/06/10 08:50:09;;;;;;;16.50;10.70;;;;;;;25.25;100.00;100521.38;5054297;28;20025;-76
2022/06/10 08:53:13;;;;;;;23.92;13.25;;;;;;;26.18;100.00;100527.84;5054914;28;20056;-75
2022/06/10 08:56:13;;;;;;;13.60;10.57;;;;;;;25.76;100.00;100531.38;5039305;28;20032;-75
2022/06/10 08:59:08;;;;;;;11.38;10.18;;;;;;;25.31;100.00;100537.03;5054946;28;20028;-75
2022/06/10 09:02:25;;;;;;;11.68;9.02;;;;;;;24.79;100.00;100526.88;5054345;28;20437;-76
2022/06/10 09:05:33;;;;;;;12.63;8.82;;;;;;;24.94;100.00;100527.47;5055009;28;20051;-75
2022/06/10 09:08:24;;;;;;;20.17;12.63;;;;;;;25.44;100.00;100532.34;5039621;28;20039;-76
2022/06/10 09:14:58;;;;;;;10.43;7.53;;;;;;;25.26;100.00;100529.28;5249261;22;20048;-73
2022/06/10 09:17:53;;;;;;;12.50;8.00;;;;;;;24.69;100.00;100520.53;5094356;28;20102;-73
2022/06/10 09:20:49;;;;;;;12.65;8.05;;;;;;;24.80;100.00;100515.19;5093667;28;20051;-74
2022/06/10 09:23:43;;;;;;;12.32;7.65;;;;;;;25.40;100.00;100517.47;5094509;28;20028;-77
2022/06/10 09:26:39;;;;;;;11.80;7.32;;;;;;;25.93;100.00;100505.84;5108273;28;20031;-78
2022/06/10 09:29:25;;;;;;;10.10;6.80;;;;;;;26.14;100.00;100518.34;5114124;28;20027;-78
2022/06/10 09:35:35;;;;;;;9.85;6.32;;;;;;;26.61;100.00;100515.13;5718634;22;20048;-79
2022/06/10 09:38:35;;;;;;;14.00;6.70;;;;;;;26.09;100.00;100514.34;5094284;28;20064;-78
2022/06/10 09:41:34;;;;;;;8.48;6.30;;;;;;;26.68;100.00;100520.84;5094581;28;20049;-77
2022/06/10 09:44:47;;;;;;;8.98;5.80;;;;;;;26.43;100.00;100522.06;5094013;28;20055;-78
2022/06/10 09:47:45;;;;;;;10.32;6.10;;;;;;;26.81;100.00;100524.16;5081781;28;20020;-74
2022/06/10 09:51:08;;;;;;;8.45;5.90;;;;;;;26.84;100.00;100527.41;5094336;28;20433;-73
2022/06/10 09:54:21;;;;;;;10.57;5.60;;;;;;;27.17;100.00;100529.00;5094876;28;20035;-73
2022/06/10 09:57:36;;;;;;;6.95;5.30;;;;;;;26.84;100.00;100524.72;5079492;28;20055;-72
2022/06/10 10:00:33;;;;;;;9.10;5.68;;;;;;;27.70;100.00;100526.84;5094486;28;20028;-72
2022/06/10 10:03:59;;;;;;;11.07;6.30;;;;;;;27.80;100.00;100525.88;5097429;28;20020;-76
2022/06/10 10:06:47;;;;;;;12.57;6.50;;;;;;;28.01;100.00;100513.19;5099213;28;20121;-76
2022/06/10 10:09:51;;;;;;;8.18;5.35;;;;;;;27.68;100.00;100518.09;5097779;28;20028;-77
2022/06/10 10:13:32;;;;;;;8.73;5.00;;;;;;;26.96;100.00;100512.03;5083106;28;20020;-76
2022/06/10 10:16:42;;;;;;;8.30;5.47;;;;;;;27.38;100.00;100519.03;5017258;28;20044;-78
2022/06/10 10:19:31;;;;;;;9.32;6.40;;;;;;;27.03;100.00;100515.91;5083237;28;20635;-78
2022/06/10 10:22:44;;;;;;;6.60;5.90;;;;;;;26.97;100.00;100519.16;5097880;28;20086;-77
2022/06/10 10:25:30;;;;;;;8.90;5.75;;;;;;;26.42;100.00;100519.50;5097317;28;20062;-77
2022/06/10 10:28:44;;;;;;;16.70;13.20;;;;;;;26.21;100.00;100507.91;5082866;28;20441;-77
2022/06/10 10:31:38;;;;;;;9.27;5.80;;;;;;;26.38;100.00;100510.88;5097527;28;20028;-77
2022/06/10 10:34:27;;;;;;;45.38;8.18;;;;;;;26.65;100.00;100513.03;5098911;28;20139;-76
2022/06/10 10:37:23;;;;;;;7.00;5.70;;;;;;;26.05;100.00;100515.56;5097391;28;20476;-77
2022/06/10 10:40:19;;;;;;;10.40;5.80;;;;;;;26.58;100.00;100511.88;5098215;28;20039;-76
2022/06/10 10:43:21;;;;;;;10.23;5.88;;;;;;;26.13;100.00;100519.31;5097236;28;20028;-77
2022/06/10 10:46:26;;;;;;;7.63;5.80;;;;;;;25.67;100.00;100528.59;5098227;28;20024;-77
2022/06/10 10:49:28;;;;;;;6.80;5.85;;;;;;;25.68;100.00;100516.91;5096907;28;20115;-77
2022/06/10 10:52:25;;;;;;;29.42;7.10;;;;;;;26.03;100.00;100512.16;5097342;28;20024;-77
2022/06/10 10:55:14;;;;;;;11.18;6.03;;;;;;;26.07;100.00;100521.66;5097212;28;20063;-77
2022/06/10 10:58:14;;;;;;;10.60;6.32;;;;;;;25.88;100.00;100516.13;5096910;28;20059;-77
2022/06/10 11:01:04;;;;;;;7.53;5.25;;;;;;;26.01;100.00;100512.31;5096302;28;20038;-77
2022/06/10 11:03:52;;;;;;;12.77;6.10;;;;;;;25.95;100.00;100506.56;5096364;28;20189;-77
2022/06/10 11:06:38;;;;;;;8.40;5.80;;;;;;;25.93;100.00;100512.06;5096200;28;20039;-78
2022/06/10 11:09:25;;;;;;;11.13;6.85;;;;;;;25.51;100.00;100517.47;5096661;28;20024;-77
2022/06/10 11:12:16;;;;;;;11.02;7.00;;;;;;;25.38;100.00;100514.91;5097076;28;20035;-78
2022/06/10 11:15:16;;;;;;;11.02;6.93;;;;;;;25.77;100.00;100506.28;5096339;28;20035;-79
2022/06/10 11:18:02;;;;;;;10.48;7.30;;;;;;;25.68;100.00;100507.00;5096546;28;20466;-78
2022/06/10 11:20:48;;;;;;;10.75;6.82;;;;;;;25.67;100.00;100505.31;5095827;28;20024;-78
2022/06/10 11:23:33;;;;;;;9.43;6.28;;;;;;;26.00;100.00;100499.00;5096076;28;20055;-78
2022/06/10 11:26:22;;;;;;;10.13;6.20;;;;;;;26.64;100.00;100493.38;5096222;28;20030;-78
2022/06/10 11:29:11;;;;;;;14.63;6.60;;;;;;;27.15;100.00;100496.84;5096600;28;20116;-78
2022/06/10 11:32:02;;;;;;;10.45;6.43;;;;;;;27.81;100.00;100497.13;5095628;28;20064;-78
2022/06/10 11:34:56;;;;;;;10.32;6.50;;;;;;;27.63;100.00;100496.97;5095838;28;20052;-78
2022/06/10 11:37:42;;;;;;;8.38;5.93;;;;;;;28.10;100.00;100485.38;5096453;28;20028;-78
2022/06/10 11:40:49;;;;;;;11.93;6.22;;;;;;;28.12;100.00;100486.06;5096533;28;20346;-78
2022/06/10 11:43:41;;;;;;;8.35;6.10;;;;;;;26.58;100.00;100476.94;5080577;28;20162;-77
2022/06/10 11:46:32;;;;;;;8.88;6.38;;;;;;;26.23;100.00;100474.56;5081551;28;20031;-78
2022/06/10 11:49:24;;;;;;;10.05;7.03;;;;;;;26.72;100.00;100479.28;5095923;28;20024;-77
2022/06/10 11:52:28;;;;;;;13.30;8.10;;;;;;;26.75;100.00;100487.03;5096589;28;20023;-79
2022/06/10 11:55:26;;;;;;;9.77;6.13;;;;;;;26.72;100.00;100492.72;5096591;28;20069;-78
2022/06/10 12:01:33;;;;;;;9.43;6.40;;;;;;;27.82;100.00;100493.47;5098091;28;20020;-76
2022/06/10 12:04:40;;;;;;;11.43;6.50;;;;;;;27.10;100.00;100485.66;5096711;28;20445;-73
2022/06/10 12:07:30;;;;;;;8.55;6.43;;;;;;;27.34;100.00;100483.47;5097440;28;20115;-76
2022/06/10 12:10:23;;;;;;;8.57;6.50;;;;;;;27.30;100.00;100491.94;5095542;28;20099;-76
2022/06/10 12:13:11;;;;;;;7.30;6.18;;;;;;;27.35;100.00;100481.63;5095205;28;20028;-76
2022/06/10 12:15:58;;;;;;;8.15;6.15;;;;;;;27.88;100.00;100501.81;5080962;28;20016;-77
2022/06/10 12:18:50;;;;;;;11.13;6.00;;;;;;;27.63;100.00;100486.19;5095619;28;20104;-74
2022/06/10 12:21:36;;;;;;;9.57;6.20;;;;;;;27.27;100.00;100487.69;5096530;28;20082;-74
2022/06/10 12:24:23;;;;;;;8.77;6.82;;;;;;;27.36;100.00;100499.44;5082031;28;20027;-72
2022/06/10 12:27:25;;;;;;;8.90;6.90;;;;;;;27.40;100.00;100490.97;5096971;28;20016;-73
2022/06/10 12:30:17;;;;;;;7.93;6.18;;;;;;;27.76;100.00;100497.53;5095896;28;20036;-71
2022/06/10 12:33:30;;;;;;;7.22;6.25;;;;;;;28.07;100.00;100498.25;5094350;28;20020;-72
2022/06/10 12:36:27;;;;;;;10.52;6.18;;;;;;;27.51;100.00;100500.75;5079012;28;20044;-74
2022/06/10 12:39:46;;;;;;;15.98;6.50;;;;;;;27.51;100.00;100506.16;5095677;28;20074;-72
2022/06/10 12:42:49;;;;;;;10.27;5.70;;;;;;;26.82;100.00;100509.72;5080193;28;20036;-72
2022/06/10 12:45:45;;;;;;;8.27;6.32;;;;;;;26.71;100.00;100510.66;5094255;28;20444;-73
2022/06/10 12:48:42;;;;;;;9.10;6.85;;;;;;;26.23;100.00;100512.19;5094486;28;20073;-72
2022/06/10 12:51:39;;;;;;;11.23;6.60;;;;;;;26.26;100.00;100503.00;5094871;28;20024;-72
2022/06/10 12:54:41;;;;;;;9.07;7.95;;;;;;;25.58;100.00;100506.09;5094317;28;20032;-72
2022/06/10 12:57:36;;;;;;;11.15;8.00;;;;;;;26.09;100.00;100499.09;5094297;28;20024;-73
2022/06/10 13:00:22;;;;;;;10.93;8.05;;;;;;;26.45;100.00;100487.84;5093916;28;20524;-71
2022/06/10 13:03:14;;;;;;;11.98;10.15;;;;;;;26.46;100.00;100491.41;5079034;28;20468;-70
2022/06/10 13:06:03;;;;;;;11.20;7.93;;;;;;;26.41;100.00;100490.94;5093547;28;20054;-72
2022/06/10 13:08:57;;;;;;;9.05;7.78;;;;;;;26.22;100.00;100489.00;5093899;28;20059;-71
2022/06/10 13:11:51;;;;;;;8.77;7.93;;;;;;;26.53;100.00;100497.94;5095141;28;20024;-71
2022/06/10 13:14:43;;;;;;;11.25;9.38;;;;;;;26.01;100.00;100498.03;5093581;28;20068;-73
2022/06/10 13:17:32;;;;;;;15.52;10.65;;;;;;;26.59;100.00;100492.06;5094651;28;20027;-74
2022/06/10 13:20:21;;;;;;;13.10;10.73;;;;;;;26.31;100.00;100493.56;5094879;28;20485;-73
2022/06/10 13:23:12;;;;;;;19.65;12.23;;;;;;;25.95;100.00;100499.38;5096325;28;20364;-75